createdAt,value
2018-04-21T00:01:54.179Z,8.75
2018-04-21T00:04:21.990Z,8.73
2018-04-21T00:06:49.712Z,8.73
2018-04-21T00:09:17.273Z,8.72
2018-04-21T00:11:44.888Z,8.67
2018-04-21T00:14:12.632Z,8.73
2018-04-21T00:16:40.192Z,8.72
2018-04-21T00:19:08.002Z,8.71
2018-04-21T00:21:35.557Z,8.74
2018-04-21T00:24:03.120Z,8.80
2018-04-21T00:26:30.964Z,8.82
2018-04-21T00:28:58.571Z,8.85
2018-04-21T00:31:26.137Z,8.85
2018-04-21T00:33:53.891Z,8.86
2018-04-21T00:36:21.467Z,8.85
2018-04-21T00:38:49.029Z,8.86
2018-04-21T00:41:16.605Z,8.85
2018-04-21T00:43:44.389Z,8.88
2018-04-21T00:46:12.201Z,8.92
2018-04-21T00:48:39.756Z,8.89
2018-04-21T00:51:07.318Z,8.90
2018-04-21T00:53:46.686Z,8.85
2018-04-21T00:56:14.250Z,8.86
2018-04-21T00:58:41.798Z,8.95
2018-04-21T01:01:09.349Z,8.99
2018-04-21T01:03:37.169Z,8.96
2018-04-21T01:06:04.776Z,9.02
2018-04-21T01:08:32.384Z,9.02
2018-04-21T01:10:59.942Z,9.01
2018-04-21T01:13:27.739Z,9.02
2018-04-21T01:15:55.459Z,8.98
2018-04-21T01:18:23.176Z,8.99
2018-04-21T01:20:50.996Z,9.00
2018-04-21T01:23:18.564Z,8.97
2018-04-21T01:25:46.219Z,8.91
2018-04-21T01:28:13.948Z,8.85
2018-04-21T01:30:41.516Z,8.85
2018-04-21T01:33:09.080Z,8.93
2018-04-21T01:35:36.635Z,8.94
2018-04-21T01:38:04.194Z,9.00
2018-04-21T01:40:31.749Z,8.98
2018-04-21T01:42:59.522Z,8.94
2018-04-21T01:45:27.238Z,8.98
2018-04-21T01:47:54.796Z,9.03
2018-04-21T01:50:22.356Z,8.99
2018-04-21T01:52:49.926Z,8.90
2018-04-21T01:55:17.516Z,8.90
2018-04-21T01:57:45.086Z,8.89
2018-04-21T02:00:12.704Z,8.89
2018-04-21T02:02:40.268Z,8.92
2018-04-21T02:05:07.824Z,8.96
2018-04-21T02:07:35.639Z,8.99
2018-04-21T02:10:03.210Z,9.02
2018-04-21T02:15:03.602Z,9.00
2018-04-21T02:17:31.425Z,8.99
2018-04-21T02:19:58.988Z,9.01
2018-04-21T02:22:26.596Z,9.03
2018-04-21T02:24:54.382Z,9.04
2018-04-21T02:27:22.097Z,9.06
2018-04-21T02:29:49.664Z,9.10
2018-04-21T02:32:17.225Z,9.15
2018-04-21T02:34:44.793Z,9.07
2018-04-21T02:37:12.572Z,9.08
2018-04-21T02:39:40.388Z,9.05
2018-04-21T02:42:07.962Z,8.95
2018-04-21T02:44:35.624Z,8.95
2018-04-21T02:47:03.399Z,8.94
2018-04-21T02:49:30.952Z,8.88
2018-04-21T02:51:58.565Z,8.92
2018-04-21T02:54:26.296Z,8.99
2018-04-21T02:56:53.990Z,9.01
2018-04-21T02:59:21.731Z,9.01
2018-04-21T03:01:49.293Z,8.94
2018-04-21T03:04:16.934Z,8.90
2018-04-21T03:06:44.657Z,8.92
2018-04-21T03:09:12.220Z,8.92
2018-04-21T03:11:39.788Z,8.89
2018-04-21T03:14:07.539Z,8.92
2018-04-21T03:16:35.156Z,8.91
2018-04-21T03:19:02.729Z,8.85
2018-04-21T03:21:30.289Z,8.81
2018-04-21T03:23:57.841Z,8.88
2018-04-21T03:26:25.402Z,8.91
2018-04-21T03:28:53.031Z,8.94
2018-04-21T03:31:20.600Z,8.93
2018-04-21T03:33:48.386Z,8.95
2018-04-21T03:36:15.954Z,8.93
2018-04-21T03:38:43.718Z,8.88
2018-04-21T03:41:11.280Z,8.87
2018-04-21T03:43:39.059Z,8.85
2018-04-21T03:46:06.673Z,8.82
2018-04-21T03:48:34.228Z,8.82
2018-04-21T03:51:02.008Z,8.82
2018-04-21T03:53:29.585Z,8.87
2018-04-21T03:55:57.236Z,8.91
2018-04-21T03:58:24.873Z,8.94
2018-04-21T04:00:52.432Z,9.01
2018-04-21T04:03:20.052Z,9.06
2018-04-21T04:05:47.817Z,9.05
2018-04-21T04:08:15.376Z,9.05
2018-04-21T04:10:43.043Z,9.05
2018-04-21T04:13:10.616Z,9.13
2018-04-21T04:15:50.235Z,9.17
2018-04-21T04:18:29.699Z,9.19
2018-04-21T04:24:00.125Z,9.25
2018-04-21T04:26:27.700Z,9.31
2018-04-21T04:28:55.264Z,9.43
2018-04-21T04:31:22.836Z,9.51
2018-04-21T04:33:50.396Z,9.67
2018-04-21T04:36:18.239Z,10.10
2018-04-21T04:38:45.957Z,10.37
2018-04-21T04:41:13.532Z,10.46
2018-04-21T04:43:41.293Z,10.53
2018-04-21T04:46:08.869Z,10.64
2018-04-21T04:48:36.441Z,10.65
2018-04-21T04:51:04.137Z,10.67
2018-04-21T04:53:31.756Z,10.69
2018-04-21T04:55:59.333Z,10.67
2018-04-21T04:58:26.908Z,10.75
2018-04-21T05:00:54.487Z,10.89
2018-04-21T05:03:22.211Z,11.00
2018-04-21T05:05:49.781Z,11.14
2018-04-21T05:08:17.349Z,11.40
2018-04-21T05:10:44.983Z,12.26
2018-04-21T05:13:12.809Z,13.14
2018-04-21T05:15:40.379Z,14.50
2018-04-21T05:18:07.948Z,15.65
2018-04-21T05:20:35.517Z,16.77
2018-04-21T05:23:03.079Z,17.34
2018-04-21T05:25:30.644Z,17.87
2018-04-21T05:27:58.248Z,18.66
2018-04-21T05:30:25.804Z,19.05
2018-04-21T05:32:53.380Z,19.31
2018-04-21T05:35:21.171Z,18.85
2018-04-21T05:37:48.742Z,18.82
2018-04-21T05:40:16.315Z,19.40
2018-04-21T05:42:43.888Z,20.48
2018-04-21T05:45:11.743Z,20.50
2018-04-21T05:47:39.315Z,19.78
2018-04-21T05:50:06.887Z,19.37
2018-04-21T05:52:34.701Z,18.90
2018-04-21T05:55:02.265Z,18.81
2018-04-21T05:57:30.090Z,19.34
2018-04-21T05:59:57.678Z,21.07
2018-04-21T06:02:25.325Z,22.14
2018-04-21T06:04:52.886Z,22.41
2018-04-21T06:07:20.706Z,21.46
2018-04-21T06:09:48.278Z,20.16
2018-04-21T06:12:15.848Z,19.25
2018-04-21T06:14:43.416Z,18.83
2018-04-21T06:17:11.178Z,18.58
2018-04-21T06:19:38.790Z,18.51
2018-04-21T06:22:06.514Z,18.59
2018-04-21T06:24:34.090Z,18.55
2018-04-21T06:27:01.742Z,18.77
2018-04-21T06:29:29.308Z,19.21
2018-04-21T06:31:56.896Z,19.13
2018-04-21T06:34:24.461Z,19.23
2018-04-21T06:36:52.082Z,20.39
2018-04-21T06:39:19.649Z,22.07
2018-04-21T06:41:47.270Z,23.84
2018-04-21T06:44:14.868Z,25.01
2018-04-21T06:46:42.427Z,26.29
2018-04-21T06:49:09.982Z,26.84
2018-04-21T06:51:37.829Z,27.60
2018-04-21T06:54:05.440Z,27.62
2018-04-21T06:56:33.008Z,27.65
2018-04-21T06:59:00.570Z,28.12
2018-04-21T07:01:28.503Z,28.54
2018-04-21T07:03:56.059Z,28.38
2018-04-21T07:06:23.637Z,28.52
2018-04-21T07:08:51.262Z,28.21
2018-04-21T07:11:18.877Z,28.82
2018-04-21T07:13:46.465Z,29.30
2018-04-21T07:16:14.027Z,29.16
2018-04-21T07:18:42.134Z,28.84
2018-04-21T07:21:10.478Z,28.64
2018-04-21T07:23:38.156Z,28.48
2018-04-21T07:26:05.716Z,28.90
2018-04-21T07:28:33.336Z,28.33
2018-04-21T07:31:01.014Z,28.47
2018-04-21T07:33:28.825Z,28.50
2018-04-21T07:35:56.439Z,28.49
2018-04-21T07:38:24.022Z,28.79
2018-04-21T07:40:51.763Z,29.27
2018-04-21T07:43:19.389Z,28.97
2018-04-21T07:45:46.993Z,28.03
2018-04-21T07:48:14.713Z,27.99
2018-04-21T07:50:42.280Z,28.19
2018-04-21T07:53:10.076Z,28.60
2018-04-21T07:55:37.794Z,29.10
2018-04-21T07:58:05.386Z,28.75
2018-04-21T08:00:33.018Z,28.08
2018-04-21T08:03:00.844Z,27.57
2018-04-21T08:05:28.661Z,27.83
2018-04-21T08:07:56.256Z,28.87
2018-04-21T08:10:23.999Z,28.77
2018-04-21T08:12:51.613Z,28.36
2018-04-21T08:15:19.153Z,28.32
2018-04-21T08:17:46.989Z,28.27
2018-04-21T08:20:14.600Z,28.62
2018-04-21T08:22:42.293Z,28.67
2018-04-21T08:25:10.107Z,28.51
2018-04-21T08:27:37.684Z,28.68
2018-04-21T08:30:05.290Z,28.79
2018-04-21T08:32:32.856Z,28.72
2018-04-21T08:35:00.583Z,28.72
2018-04-21T08:37:28.187Z,28.70
2018-04-21T08:39:55.736Z,28.73
2018-04-21T08:42:23.282Z,28.33
2018-04-21T08:44:50.837Z,28.01
2018-04-21T08:47:18.378Z,28.14
2018-04-21T08:49:46.000Z,27.93
2018-04-21T08:52:13.560Z,27.79
2018-04-21T08:54:41.175Z,27.54
2018-04-21T08:57:08.856Z,27.78
2018-04-21T08:59:36.449Z,27.81
2018-04-21T09:02:04.065Z,28.04
2018-04-21T09:04:31.763Z,28.16
2018-04-21T09:06:59.346Z,28.22
2018-04-21T09:09:26.909Z,28.36
2018-04-21T09:11:54.545Z,28.99
2018-04-21T09:14:22.367Z,28.70
2018-04-21T09:16:49.938Z,28.73
2018-04-21T09:19:17.517Z,28.47
2018-04-21T09:21:45.068Z,29.03
2018-04-21T09:24:12.735Z,29.29
2018-04-21T09:26:40.287Z,29.62
2018-04-21T09:29:08.073Z,29.66
2018-04-21T09:31:35.892Z,30.49
2018-04-21T09:34:03.448Z,30.46
2018-04-21T09:36:31.128Z,29.69
2018-04-21T09:38:58.675Z,29.39
2018-04-21T09:41:26.239Z,29.48
2018-04-21T09:43:53.876Z,29.58
2018-04-21T09:46:21.575Z,29.90
2018-04-21T09:48:49.188Z,29.24
2018-04-21T09:51:16.826Z,28.80
2018-04-21T09:53:44.394Z,28.93
2018-04-21T09:56:12.013Z,29.11
2018-04-21T09:58:39.598Z,29.35
2018-04-21T10:01:07.257Z,29.25
2018-04-21T10:03:34.820Z,29.42
2018-04-21T10:06:02.427Z,29.16
2018-04-21T10:08:30.036Z,28.40
2018-04-21T10:10:57.589Z,28.17
2018-04-21T10:13:25.141Z,28.24
2018-04-21T10:15:52.709Z,28.28
2018-04-21T10:18:20.321Z,28.20
2018-04-21T10:20:47.957Z,28.12
2018-04-21T10:23:15.669Z,26.72
2018-04-21T10:25:43.288Z,27.03
2018-04-21T10:28:10.851Z,27.28
2018-04-21T10:30:38.534Z,27.60
2018-04-21T10:33:06.092Z,27.64
2018-04-21T10:35:33.686Z,27.12
2018-04-21T10:38:01.347Z,27.32
2018-04-21T10:40:28.950Z,27.46
2018-04-21T10:42:56.604Z,27.02
2018-04-21T10:45:24.519Z,27.10
2018-04-21T10:47:53.207Z,27.76
2018-04-21T10:50:20.758Z,28.11
2018-04-21T10:52:48.305Z,28.40
2018-04-21T10:55:15.869Z,28.31
2018-04-21T10:57:43.426Z,27.50
2018-04-21T11:00:11.164Z,27.20
2018-04-21T11:02:38.732Z,26.79
2018-04-21T11:05:06.644Z,26.32
2018-04-21T11:07:34.193Z,26.15
2018-04-21T11:10:01.866Z,26.21
2018-04-21T11:12:29.497Z,26.48
2018-04-21T11:14:57.108Z,25.98
2018-04-21T11:17:24.671Z,25.33
2018-04-21T11:19:52.407Z,25.55
2018-04-21T11:22:19.968Z,25.59
2018-04-21T11:24:47.535Z,25.86
2018-04-21T11:27:15.100Z,25.89
2018-04-21T11:29:42.669Z,26.06
2018-04-21T11:32:10.220Z,26.34
2018-04-21T11:34:37.840Z,26.67
2018-04-21T11:37:05.501Z,26.83
2018-04-21T11:39:33.097Z,26.75
2018-04-21T11:42:00.731Z,26.84
2018-04-21T11:44:28.305Z,26.82
2018-04-21T11:46:55.897Z,26.82
2018-04-21T11:49:23.480Z,27.04
2018-04-21T11:51:52.903Z,27.37
2018-04-21T11:54:20.760Z,27.74
2018-04-21T11:56:48.725Z,27.42
2018-04-21T11:59:16.733Z,27.26
2018-04-21T12:01:44.310Z,26.89
2018-04-21T12:04:11.932Z,26.99
2018-04-21T12:06:39.500Z,26.71
2018-04-21T12:09:07.066Z,26.26
2018-04-21T12:11:34.631Z,26.32
2018-04-21T12:14:02.196Z,26.68
2018-04-21T12:16:29.873Z,26.54
2018-04-21T12:18:57.520Z,26.00
2018-04-21T12:21:25.243Z,25.89
2018-04-21T12:23:52.811Z,25.79
2018-04-21T12:26:20.432Z,25.89
2018-04-21T12:28:48.001Z,26.04
2018-04-21T12:31:15.561Z,25.53
2018-04-21T12:33:43.181Z,25.32
2018-04-21T12:36:10.808Z,24.79
2018-04-21T12:38:38.372Z,24.92
2018-04-21T12:41:06.011Z,25.17
2018-04-21T12:43:33.642Z,25.57
2018-04-21T12:46:01.201Z,25.61
2018-04-21T12:48:28.748Z,25.73
2018-04-21T12:50:56.376Z,25.58
2018-04-21T12:53:23.990Z,25.39
2018-04-21T12:55:51.559Z,25.53
2018-04-21T12:58:19.121Z,25.59
2018-04-21T13:00:46.751Z,25.42
2018-04-21T13:03:14.325Z,25.36
2018-04-21T13:05:41.955Z,25.42
2018-04-21T13:08:09.806Z,25.45
2018-04-21T13:10:37.364Z,25.46
2018-04-21T13:13:04.959Z,25.55
2018-04-21T13:15:32.528Z,25.25
2018-04-21T13:18:00.084Z,25.45
2018-04-21T13:20:27.652Z,25.56
2018-04-21T13:22:55.277Z,25.45
2018-04-21T13:25:22.848Z,25.27
2018-04-21T13:27:50.431Z,25.17
2018-04-21T13:30:18.047Z,24.86
2018-04-21T13:32:45.605Z,24.44
2018-04-21T13:35:13.381Z,23.95
2018-04-21T13:37:40.929Z,23.69
2018-04-21T13:40:08.599Z,23.95
2018-04-21T13:42:36.201Z,24.28
2018-04-21T13:45:03.849Z,24.53
2018-04-21T13:47:31.552Z,24.76
2018-04-21T13:49:59.108Z,24.76
2018-04-21T13:52:26.699Z,24.63
2018-04-21T13:54:54.329Z,24.78
2018-04-21T13:57:21.881Z,24.80
2018-04-21T13:59:49.446Z,24.83
2018-04-21T14:02:17.038Z,24.94
2018-04-21T14:04:44.641Z,24.95
2018-04-21T14:07:12.191Z,25.04
2018-04-21T14:09:39.921Z,25.09
2018-04-21T14:12:07.480Z,24.90
2018-04-21T14:14:35.093Z,24.94
2018-04-21T14:17:02.751Z,25.04
2018-04-21T14:19:30.491Z,25.11
2018-04-21T14:21:58.135Z,24.90
2018-04-21T14:24:25.714Z,24.62
2018-04-21T14:26:53.268Z,24.71
2018-04-21T14:29:20.906Z,24.82
2018-04-21T14:31:48.468Z,24.74
2018-04-21T14:34:16.189Z,24.82
2018-04-21T14:36:43.833Z,24.73
2018-04-21T14:39:11.622Z,24.73
2018-04-21T14:41:39.249Z,24.72
2018-04-21T14:44:06.806Z,24.64
2018-04-21T14:46:34.388Z,24.51
2018-04-21T14:49:02.091Z,24.55
2018-04-21T14:51:29.658Z,24.64
2018-04-21T14:53:57.273Z,24.74
2018-04-21T14:56:24.877Z,24.66
2018-04-21T14:58:52.418Z,24.68
2018-04-21T15:01:20.065Z,24.61
2018-04-21T15:03:47.637Z,24.51
2018-04-21T15:06:15.289Z,24.60
2018-04-21T15:08:42.925Z,24.55
2018-04-21T15:11:10.484Z,24.56
2018-04-21T15:13:38.160Z,24.42
2018-04-21T15:16:05.766Z,24.28
2018-04-21T15:18:33.397Z,24.13
2018-04-21T15:21:01.081Z,24.12
2018-04-21T15:23:28.777Z,24.00
2018-04-21T15:25:56.441Z,23.87
2018-04-21T15:28:24.157Z,23.89
2018-04-21T15:30:51.821Z,23.92
2018-04-21T15:33:19.922Z,23.90
2018-04-21T15:35:47.487Z,23.77
2018-04-21T15:38:15.048Z,23.72
2018-04-21T15:40:42.601Z,23.57
2018-04-21T15:43:10.178Z,23.58
2018-04-21T15:45:37.732Z,23.53
2018-04-21T15:48:05.523Z,23.50
2018-04-21T15:50:33.242Z,23.44
2018-04-21T15:53:00.830Z,23.39
2018-04-21T15:55:28.577Z,23.36
2018-04-21T15:57:56.190Z,23.36
2018-04-21T16:00:23.757Z,23.28
2018-04-21T16:02:51.384Z,23.28
2018-04-21T16:05:18.965Z,23.23
2018-04-21T16:07:46.518Z,23.07
2018-04-21T16:10:14.069Z,22.82
2018-04-21T16:12:41.903Z,22.48
2018-04-21T16:15:09.480Z,22.09
2018-04-21T16:17:37.127Z,21.91
2018-04-21T16:20:04.749Z,21.75
2018-04-21T16:22:32.361Z,21.59
2018-04-21T16:24:59.930Z,21.42
2018-04-21T16:27:27.648Z,21.25
2018-04-21T16:29:55.244Z,21.05
2018-04-21T16:32:23.049Z,20.87
2018-04-21T16:34:50.871Z,20.70
2018-04-21T16:37:18.420Z,20.55
2018-04-21T16:39:46.041Z,20.38
2018-04-21T16:42:13.642Z,20.28
2018-04-21T16:44:41.439Z,20.14
2018-04-21T16:47:08.999Z,20.03
2018-04-21T16:49:36.548Z,19.92
2018-04-21T16:52:04.129Z,19.84
2018-04-21T16:54:31.692Z,19.74
2018-04-21T16:56:59.550Z,19.61
2018-04-21T16:59:27.121Z,19.45
2018-04-21T17:01:54.751Z,19.35
2018-04-21T17:04:22.536Z,19.21
2018-04-21T17:06:50.111Z,19.10
2018-04-21T17:09:17.921Z,18.93
2018-04-21T17:11:45.639Z,18.85
2018-04-21T17:14:13.460Z,18.76
2018-04-21T17:16:41.020Z,18.67
2018-04-21T17:19:08.579Z,18.62
2018-04-21T17:21:36.201Z,18.60
2018-04-21T17:24:03.752Z,18.52
2018-04-21T17:26:31.428Z,18.36
2018-04-21T17:28:59.072Z,18.29
2018-04-21T17:31:26.788Z,18.15
2018-04-21T17:33:54.344Z,18.05
2018-04-21T17:36:21.915Z,17.96
2018-04-21T17:38:49.513Z,17.92
2018-04-21T17:41:17.069Z,17.85
2018-04-21T17:43:44.873Z,17.80
2018-04-21T17:46:12.433Z,17.80
2018-04-21T17:48:40.047Z,17.75
2018-04-21T17:51:07.765Z,17.68
2018-04-21T17:53:35.328Z,17.65
2018-04-21T17:56:02.904Z,17.54
2018-04-21T17:58:30.457Z,17.38
2018-04-21T18:00:58.128Z,17.31
2018-04-21T18:03:25.680Z,17.29
2018-04-21T18:05:53.304Z,17.18
2018-04-21T18:08:20.866Z,17.14
2018-04-21T18:10:48.426Z,17.11
2018-04-21T18:13:16.218Z,16.99
2018-04-21T18:15:43.935Z,16.92
2018-04-21T18:18:11.755Z,16.79
2018-04-21T18:20:39.306Z,16.78
2018-04-21T18:23:06.928Z,16.75
2018-04-21T18:25:34.491Z,16.75
2018-04-21T18:28:02.071Z,16.74
2018-04-21T18:30:29.737Z,16.67
2018-04-21T18:32:57.462Z,16.55
2018-04-21T18:35:25.074Z,16.49
2018-04-21T18:37:52.645Z,16.48
2018-04-21T18:40:20.269Z,16.39
2018-04-21T18:42:48.013Z,16.30
2018-04-21T18:45:15.584Z,16.22
2018-04-21T18:47:43.154Z,16.13
2018-04-21T18:50:10.863Z,16.06
2018-04-21T18:52:38.444Z,15.98
2018-04-21T18:55:06.196Z,15.93
2018-04-21T18:57:33.808Z,15.85
2018-04-21T19:00:01.560Z,15.86
2018-04-21T19:02:29.195Z,15.75
2018-04-21T19:04:56.832Z,15.73
2018-04-21T19:07:24.449Z,15.71
2018-04-21T19:09:52.035Z,15.70
2018-04-21T19:12:19.588Z,15.75
2018-04-21T19:14:47.260Z,15.66
2018-04-21T19:17:14.820Z,15.61
2018-04-21T19:19:42.380Z,15.56
2018-04-21T19:22:10.011Z,15.54
2018-04-21T19:24:37.546Z,15.46
2018-04-21T19:27:05.173Z,15.38
2018-04-21T19:29:32.724Z,15.26
2018-04-21T19:32:00.595Z,15.15
2018-04-21T19:34:28.311Z,15.12
2018-04-21T19:36:55.888Z,15.10
2018-04-21T19:39:23.452Z,14.98
2018-04-21T19:41:51.017Z,14.96
2018-04-21T19:44:18.587Z,14.89
2018-04-21T19:46:46.300Z,14.87
2018-04-21T19:49:13.890Z,14.88
2018-04-21T19:51:41.527Z,14.88
2018-04-21T19:54:09.087Z,14.81
2018-04-21T19:56:36.714Z,14.69
2018-04-21T19:59:04.345Z,14.61
2018-04-21T20:01:31.950Z,14.53
2018-04-21T20:03:59.569Z,14.54
2018-04-21T20:06:27.245Z,14.47
2018-04-21T20:08:55.046Z,14.36
2018-04-21T20:11:22.840Z,14.28
2018-04-21T20:13:50.421Z,14.16
2018-04-21T20:16:18.108Z,14.06
2018-04-21T20:18:45.709Z,14.00
2018-04-21T20:21:13.300Z,13.93
2018-04-21T20:23:40.963Z,13.87
2018-04-21T20:26:08.801Z,13.84
2018-04-21T20:28:36.448Z,13.85
2018-04-21T20:31:04.226Z,13.85
2018-04-21T20:33:31.887Z,13.87
2018-04-21T20:35:59.480Z,13.90
2018-04-21T20:38:27.171Z,13.88
2018-04-21T20:40:54.761Z,13.89
2018-04-21T20:43:22.340Z,13.81
2018-04-21T20:45:50.135Z,13.76
2018-04-21T20:48:17.853Z,13.71
2018-04-21T20:50:45.484Z,13.64
2018-04-21T20:53:13.289Z,13.57
2018-04-21T20:55:40.880Z,13.56
2018-04-21T20:58:08.458Z,13.56
2018-04-21T21:00:36.108Z,13.58
2018-04-21T21:03:03.788Z,13.51
2018-04-21T21:05:31.481Z,13.54
2018-04-21T21:07:59.130Z,13.47
2018-04-21T21:10:26.739Z,13.39
2018-04-21T21:12:54.503Z,13.30
2018-04-21T21:15:22.112Z,13.13
2018-04-21T21:17:49.693Z,13.07
2018-04-21T21:20:17.588Z,13.07
2018-04-21T21:22:45.199Z,13.06
2018-04-21T21:25:12.784Z,13.04
2018-04-21T21:27:40.543Z,13.03
2018-04-21T21:30:08.124Z,12.93
2018-04-21T21:32:35.879Z,12.78
2018-04-21T21:35:03.488Z,12.69
2018-04-21T21:37:31.131Z,12.66
2018-04-21T21:39:58.784Z,12.60
2018-04-21T21:42:26.445Z,12.57
2018-04-21T21:44:54.271Z,12.52
2018-04-21T21:47:21.879Z,12.52
2018-04-21T21:49:49.506Z,12.34
2018-04-21T21:52:17.114Z,12.26
2018-04-21T21:54:44.942Z,12.27
2018-04-21T21:57:12.629Z,12.24
2018-04-21T21:59:40.343Z,12.24
2018-04-21T22:02:07.973Z,12.21
2018-04-21T22:04:35.546Z,12.24
2018-04-21T22:07:08.783Z,12.23
2018-04-21T22:09:36.344Z,12.22
2018-04-21T22:12:03.915Z,12.16
2018-04-21T22:14:31.486Z,12.07
2018-04-21T22:16:59.107Z,12.08
2018-04-21T22:19:26.839Z,12.06
2018-04-21T22:21:54.490Z,12.06
2018-04-21T22:24:22.278Z,12.03
2018-04-21T22:26:49.837Z,12.00
2018-04-21T22:29:17.408Z,11.90
2018-04-21T22:31:44.949Z,11.93
2018-04-21T22:34:12.527Z,11.90
2018-04-21T22:36:40.240Z,11.89
2018-04-21T22:39:07.875Z,11.87
2018-04-21T22:41:35.437Z,11.84
2018-04-21T22:44:02.996Z,11.87
2018-04-21T22:46:30.838Z,11.89
2018-04-21T22:48:58.556Z,11.85
2018-04-21T22:51:26.211Z,11.81
2018-04-21T22:53:53.992Z,11.75
2018-04-21T22:56:21.672Z,11.71
2018-04-21T22:58:49.236Z,11.70
2018-04-21T23:01:17.047Z,11.69
2018-04-21T23:03:44.657Z,11.64
2018-04-21T23:06:12.386Z,11.62
2018-04-21T23:08:40.103Z,11.65
2018-04-21T23:11:07.682Z,11.67
2018-04-21T23:13:35.236Z,11.69
2018-04-21T23:16:02.857Z,11.65
2018-04-21T23:18:30.675Z,11.58
2018-04-21T23:20:58.228Z,11.43
2018-04-21T23:23:26.013Z,11.32
2018-04-21T23:25:53.568Z,11.24
2018-04-21T23:28:21.188Z,11.20
2018-04-21T23:30:48.966Z,11.21
2018-04-21T23:33:16.525Z,11.18
2018-04-21T23:35:44.302Z,11.26
2018-04-21T23:38:12.023Z,11.28
2018-04-21T23:40:39.592Z,11.25
2018-04-21T23:43:07.248Z,11.26
2018-04-21T23:45:34.995Z,11.24
2018-04-21T23:48:02.548Z,11.17
2018-04-21T23:50:30.114Z,11.20
2018-04-21T23:52:57.676Z,11.20
2018-04-21T23:55:25.421Z,11.20
2018-04-21T23:57:53.135Z,11.20
